createdAt,value
2018-07-14T00:00:10.527Z,19.92
2018-07-14T00:02:39.407Z,20.01
2018-07-14T00:05:08.238Z,19.95
2018-07-14T00:07:36.965Z,19.87
2018-07-14T00:10:05.821Z,19.86
2018-07-14T00:12:34.531Z,19.85
2018-07-14T00:15:03.250Z,19.89
2018-07-14T00:17:31.975Z,19.85
2018-07-14T00:20:00.734Z,19.86
2018-07-14T00:22:29.450Z,19.92
2018-07-14T00:24:58.224Z,19.85
2018-07-14T00:27:26.941Z,19.86
2018-07-14T00:29:55.658Z,19.87
2018-07-14T00:32:24.394Z,19.91
2018-07-14T00:34:53.096Z,19.93
2018-07-14T00:37:21.842Z,19.88
2018-07-14T00:39:50.565Z,19.89
2018-07-14T00:42:19.245Z,19.86
2018-07-14T00:44:48.015Z,19.82
2018-07-14T00:47:16.742Z,19.79
2018-07-14T00:49:45.441Z,19.74
2018-07-14T00:52:14.156Z,19.73
2018-07-14T00:54:42.906Z,19.71
2018-07-14T00:57:11.658Z,19.71
2018-07-14T00:59:40.375Z,19.69
2018-07-14T01:02:09.192Z,19.65
2018-07-14T01:04:37.897Z,19.67
2018-07-14T01:07:06.585Z,19.72
2018-07-14T01:09:35.312Z,19.78
2018-07-14T01:12:04.042Z,19.85
2018-07-14T01:14:32.761Z,19.94
2018-07-14T01:17:01.468Z,20.00
2018-07-14T01:19:30.182Z,20.05
2018-07-14T01:21:58.953Z,20.11
2018-07-14T01:24:27.648Z,20.12
2018-07-14T01:26:56.389Z,20.09
2018-07-14T01:29:25.199Z,19.98
2018-07-14T01:31:53.941Z,19.93
2018-07-14T01:34:22.709Z,19.89
2018-07-14T01:36:51.401Z,19.86
2018-07-14T01:39:20.245Z,19.80
2018-07-14T01:41:49.073Z,19.75
2018-07-14T01:44:17.786Z,19.74
2018-07-14T01:46:46.489Z,19.67
2018-07-14T01:49:15.191Z,19.72
2018-07-14T01:51:43.905Z,19.64
2018-07-14T01:54:12.658Z,19.62
2018-07-14T01:56:41.348Z,19.69
2018-07-14T01:59:10.072Z,19.67
2018-07-14T02:01:38.785Z,19.72
2018-07-14T02:04:07.502Z,19.71
2018-07-14T02:06:36.221Z,19.75
2018-07-14T02:09:05.674Z,19.73
2018-07-14T02:11:34.428Z,19.81
2018-07-14T02:14:03.180Z,19.89
2018-07-14T02:16:31.908Z,19.91
2018-07-14T02:19:00.805Z,19.86
2018-07-14T02:21:29.508Z,19.84
2018-07-14T02:23:58.213Z,19.82
2018-07-14T02:26:26.952Z,19.77
2018-07-14T02:28:55.654Z,19.69
2018-07-14T02:31:24.491Z,19.66
2018-07-14T02:33:53.210Z,19.65
2018-07-14T02:36:21.913Z,19.67
2018-07-14T02:38:50.673Z,19.65
2018-07-14T02:41:19.397Z,19.64
2018-07-14T02:43:48.158Z,19.60
2018-07-14T02:46:16.922Z,19.62
2018-07-14T02:48:45.631Z,19.74
2018-07-14T02:51:14.332Z,19.67
2018-07-14T02:53:43.071Z,19.68
2018-07-14T02:56:11.801Z,19.60
2018-07-14T02:58:40.537Z,19.50
2018-07-14T03:01:09.260Z,19.50
2018-07-14T03:03:37.974Z,19.50
2018-07-14T03:06:06.733Z,19.52
2018-07-14T03:08:35.559Z,19.58
2018-07-14T03:11:04.320Z,19.66
2018-07-14T03:13:33.049Z,19.76
2018-07-14T03:16:01.799Z,19.88
2018-07-14T03:18:30.493Z,20.02
2018-07-14T03:20:59.253Z,20.11
2018-07-14T03:23:27.971Z,20.19
2018-07-14T03:25:56.678Z,20.26
2018-07-14T03:28:25.404Z,20.31
2018-07-14T03:30:54.342Z,20.31
2018-07-14T03:33:23.074Z,20.38
2018-07-14T03:35:52.291Z,20.53
2018-07-14T03:38:21.049Z,20.64
2018-07-14T03:40:49.897Z,20.90
2018-07-14T03:43:19.189Z,21.41
2018-07-14T03:45:47.936Z,22.50
2018-07-14T03:48:16.677Z,23.82
2018-07-14T03:50:45.417Z,24.40
2018-07-14T03:53:14.139Z,23.84
2018-07-14T03:55:42.870Z,23.43
2018-07-14T03:58:11.765Z,23.15
2018-07-14T04:00:40.486Z,24.00
2018-07-14T04:03:09.221Z,24.84
2018-07-14T04:05:37.958Z,24.62
2018-07-14T04:08:06.691Z,24.04
2018-07-14T04:10:35.563Z,23.57
2018-07-14T04:13:04.286Z,23.08
2018-07-14T04:15:33.015Z,22.86
2018-07-14T04:18:04.893Z,22.65
2018-07-14T04:20:36.307Z,22.52
2018-07-14T04:23:05.077Z,22.55
2018-07-14T04:25:33.933Z,22.48
2018-07-14T04:28:03.009Z,22.40
2018-07-14T04:30:31.693Z,22.50
2018-07-14T04:33:00.428Z,22.65
2018-07-14T04:35:29.193Z,23.20
2018-07-14T04:37:57.972Z,23.63
2018-07-14T04:40:26.698Z,24.20
2018-07-14T04:42:55.469Z,24.45
2018-07-14T04:45:24.194Z,24.49
2018-07-14T04:47:53.035Z,25.27
2018-07-14T04:50:21.761Z,25.46
2018-07-14T04:52:50.495Z,25.44
2018-07-14T04:55:19.189Z,25.08
2018-07-14T04:57:47.922Z,24.84
2018-07-14T05:00:16.665Z,25.00
2018-07-14T05:02:45.450Z,26.14
2018-07-14T05:05:14.627Z,26.97
2018-07-14T05:07:43.340Z,29.19
2018-07-14T05:10:12.051Z,31.61
2018-07-14T05:12:40.813Z,31.65
2018-07-14T05:15:09.543Z,33.10
2018-07-14T05:17:38.369Z,34.00
2018-07-14T05:20:07.311Z,35.02
2018-07-14T05:22:36.063Z,36.52
2018-07-14T05:25:04.863Z,36.63
2018-07-14T05:27:33.583Z,36.77
2018-07-14T05:30:02.319Z,35.66
2018-07-14T05:32:31.088Z,33.68
2018-07-14T05:34:59.821Z,33.12
2018-07-14T05:37:28.559Z,32.41
2018-07-14T05:39:57.269Z,30.92
2018-07-14T05:42:25.993Z,31.17
2018-07-14T05:44:54.697Z,32.12
2018-07-14T05:47:23.398Z,31.78
2018-07-14T05:49:52.154Z,31.21
2018-07-14T05:52:20.898Z,30.57
2018-07-14T05:54:49.626Z,30.33
2018-07-14T05:57:18.343Z,30.07
2018-07-14T05:59:47.048Z,29.68
2018-07-14T06:02:15.809Z,29.29
2018-07-14T06:04:44.530Z,29.15
2018-07-14T06:07:13.416Z,28.78
2018-07-14T06:09:42.131Z,28.31
2018-07-14T06:12:10.860Z,28.20
2018-07-14T06:14:39.633Z,27.80
2018-07-14T06:17:08.404Z,28.00
2018-07-14T06:19:37.198Z,27.96
2018-07-14T06:22:05.908Z,27.90
2018-07-14T06:24:34.650Z,27.56
2018-07-14T06:27:03.427Z,27.55
2018-07-14T06:29:32.184Z,27.47
2018-07-14T06:32:00.931Z,27.59
2018-07-14T06:34:29.669Z,27.64
2018-07-14T06:36:58.401Z,28.29
2018-07-14T06:39:27.124Z,28.65
2018-07-14T06:41:55.850Z,29.61
2018-07-14T06:44:24.565Z,30.89
2018-07-14T06:46:53.478Z,33.52
2018-07-14T06:49:22.232Z,33.94
2018-07-14T06:51:51.138Z,32.82
2018-07-14T06:54:19.895Z,32.05
2018-07-14T06:56:48.678Z,31.50
2018-07-14T06:59:18.481Z,31.01
2018-07-14T07:01:47.243Z,31.02
2018-07-14T07:04:15.993Z,30.68
2018-07-14T07:06:45.053Z,30.88
2018-07-14T07:09:13.795Z,31.75
2018-07-14T07:11:42.569Z,31.17
2018-07-14T07:14:11.290Z,31.51
2018-07-14T07:16:40.055Z,31.92
2018-07-14T07:19:08.765Z,31.93
2018-07-14T07:21:37.457Z,31.74
2018-07-14T07:24:06.403Z,30.86
2018-07-14T07:26:35.311Z,30.58
2018-07-14T07:29:04.091Z,30.51
2018-07-14T07:31:32.794Z,30.44
2018-07-14T07:34:01.599Z,30.59
2018-07-14T07:36:30.452Z,31.66
2018-07-14T07:38:59.475Z,33.65
2018-07-14T07:41:28.195Z,35.25
2018-07-14T07:43:56.914Z,35.18
2018-07-14T07:46:25.832Z,34.94
2018-07-14T07:48:54.587Z,35.70
2018-07-14T07:51:23.299Z,34.56
2018-07-14T07:53:52.002Z,33.65
2018-07-14T07:56:20.702Z,33.45
2018-07-14T07:58:49.436Z,34.91
2018-07-14T08:01:18.170Z,35.28
2018-07-14T08:03:46.880Z,34.12
2018-07-14T08:06:15.596Z,32.96
2018-07-14T08:08:44.342Z,32.46
2018-07-14T08:11:13.039Z,32.26
2018-07-14T08:13:41.773Z,31.66
2018-07-14T08:16:10.543Z,32.15
2018-07-14T08:18:39.233Z,33.73
2018-07-14T08:21:08.055Z,35.09
2018-07-14T08:23:36.786Z,34.76
2018-07-14T08:26:05.596Z,36.28
2018-07-14T08:28:34.320Z,36.71
2018-07-14T08:31:03.010Z,37.16
2018-07-14T08:33:31.729Z,37.32
2018-07-14T08:36:00.460Z,37.81
2018-07-14T08:38:29.225Z,37.75
2018-07-14T08:40:57.933Z,38.41
2018-07-14T08:43:26.650Z,39.56
2018-07-14T08:45:55.371Z,39.42
2018-07-14T08:48:24.253Z,39.56
2018-07-14T08:50:53.001Z,39.91
2018-07-14T08:53:21.732Z,38.61
2018-07-14T08:55:50.459Z,38.77
2018-07-14T08:58:21.487Z,39.94
2018-07-14T09:00:50.318Z,39.07
2018-07-14T09:03:19.072Z,37.53
2018-07-14T09:05:47.799Z,38.15
2018-07-14T09:08:16.519Z,37.64
2018-07-14T09:10:45.474Z,38.08
2018-07-14T09:13:14.176Z,37.78
2018-07-14T09:15:42.934Z,38.30
2018-07-14T09:18:11.671Z,39.33
2018-07-14T09:20:40.458Z,37.94
2018-07-14T09:23:09.188Z,38.82
2018-07-14T09:25:37.928Z,39.90
2018-07-14T09:28:06.908Z,40.62
2018-07-14T09:30:35.738Z,38.90
2018-07-14T09:33:04.598Z,38.24
2018-07-14T09:35:33.382Z,37.83
2018-07-14T09:38:02.157Z,35.90
2018-07-14T09:40:30.866Z,35.86
2018-07-14T09:42:59.594Z,35.66
2018-07-14T09:45:28.372Z,36.47
2018-07-14T09:47:57.961Z,37.07
2018-07-14T09:50:26.678Z,37.39
2018-07-14T09:52:55.402Z,38.08
2018-07-14T09:55:24.112Z,37.39
2018-07-14T09:57:52.908Z,37.36
2018-07-14T10:00:26.749Z,36.47
2018-07-14T10:02:55.453Z,37.51
2018-07-14T10:05:24.205Z,37.31
2018-07-14T10:07:52.920Z,36.84
2018-07-14T10:10:21.617Z,36.23
2018-07-14T10:12:50.355Z,36.61
2018-07-14T10:15:19.098Z,36.87
2018-07-14T10:17:47.869Z,37.43
2018-07-14T10:20:16.580Z,37.79
2018-07-14T10:22:45.284Z,37.85
2018-07-14T10:25:14.056Z,38.73
2018-07-14T10:27:42.949Z,39.31
2018-07-14T10:30:11.689Z,39.64
2018-07-14T10:32:40.434Z,39.21
2018-07-14T10:35:09.163Z,38.79
2018-07-14T10:37:37.891Z,37.59
2018-07-14T10:40:06.653Z,37.49
2018-07-14T10:42:35.463Z,36.92
2018-07-14T10:45:04.381Z,37.13
2018-07-14T10:47:33.118Z,37.36
2018-07-14T10:50:01.852Z,36.84
2018-07-14T10:52:30.596Z,37.26
2018-07-14T10:54:59.349Z,37.98
2018-07-14T10:57:28.070Z,39.12
2018-07-14T10:59:56.783Z,38.90
2018-07-14T11:02:25.494Z,37.99
2018-07-14T11:04:54.208Z,37.27
2018-07-14T11:07:22.974Z,36.59
2018-07-14T11:09:51.697Z,36.34
2018-07-14T11:12:20.405Z,37.25
2018-07-14T11:14:49.126Z,37.29
2018-07-14T11:17:17.850Z,36.51
2018-07-14T11:19:46.600Z,35.74
2018-07-14T11:22:15.314Z,37.06
2018-07-14T11:24:44.015Z,37.55
2018-07-14T11:27:12.730Z,37.32
2018-07-14T11:29:41.451Z,36.89
2018-07-14T11:32:10.188Z,37.27
2018-07-14T11:34:38.899Z,37.35
2018-07-14T11:37:07.618Z,38.37
2018-07-14T11:39:36.561Z,37.10
2018-07-14T11:42:05.709Z,37.92
2018-07-14T11:44:34.465Z,37.98
2018-07-14T11:47:03.469Z,37.76
2018-07-14T11:49:32.381Z,36.30
2018-07-14T11:52:01.537Z,35.84
2018-07-14T11:54:30.757Z,36.98
2018-07-14T11:56:59.502Z,38.04
2018-07-14T11:59:28.222Z,38.95
2018-07-14T12:01:57.008Z,39.12
2018-07-14T12:04:25.711Z,40.05
2018-07-14T12:06:54.434Z,39.45
2018-07-14T12:09:23.169Z,39.14
2018-07-14T12:11:51.887Z,39.17
2018-07-14T12:14:20.610Z,38.83
2018-07-14T12:16:49.350Z,37.69
2018-07-14T12:19:18.086Z,37.10
2018-07-14T12:21:46.800Z,35.99
2018-07-14T12:24:15.526Z,36.07
2018-07-14T12:26:44.298Z,34.61
2018-07-14T12:29:12.993Z,34.37
2018-07-14T12:31:41.718Z,33.86
2018-07-14T12:34:10.565Z,33.67
2018-07-14T12:36:39.505Z,33.97
2018-07-14T12:39:08.321Z,35.13
2018-07-14T12:41:37.045Z,34.91
2018-07-14T12:44:05.779Z,34.44
2018-07-14T12:46:34.557Z,34.04
2018-07-14T12:49:03.332Z,33.52
2018-07-14T12:51:32.130Z,33.12
2018-07-14T12:54:00.871Z,32.94
2018-07-14T12:56:29.594Z,32.89
2018-07-14T12:58:58.350Z,32.66
2018-07-14T13:01:27.062Z,32.48
2018-07-14T13:03:55.791Z,32.43
2018-07-14T13:06:24.539Z,32.66
2018-07-14T13:08:53.289Z,32.24
2018-07-14T13:11:22.025Z,32.45
2018-07-14T13:13:50.815Z,32.24
2018-07-14T13:16:19.534Z,32.08
2018-07-14T13:18:48.282Z,32.04
2018-07-14T13:21:17.141Z,32.01
2018-07-14T13:23:45.917Z,31.70
2018-07-14T13:26:14.669Z,31.81
2018-07-14T13:28:43.366Z,32.14
2018-07-14T13:31:12.131Z,31.95
2018-07-14T13:33:40.866Z,31.31
2018-07-14T13:36:09.621Z,30.75
2018-07-14T13:38:38.345Z,31.25
2018-07-14T13:41:07.103Z,31.47
2018-07-14T13:43:35.925Z,31.50
2018-07-14T13:46:04.650Z,31.40
2018-07-14T13:48:33.369Z,31.49
2018-07-14T13:51:02.146Z,31.04
2018-07-14T13:53:31.162Z,31.09
2018-07-14T13:55:59.947Z,31.02
2018-07-14T13:58:29.927Z,30.85
2018-07-14T14:00:58.723Z,30.98
2018-07-14T14:03:27.445Z,31.16
2018-07-14T14:08:58.641Z,31.17
2018-07-14T14:11:28.286Z,31.00
2018-07-14T14:13:57.052Z,31.20
2018-07-14T14:16:25.782Z,31.23
2018-07-14T14:18:54.513Z,31.08
2018-07-14T14:21:23.266Z,30.93
2018-07-14T14:23:52.013Z,31.03
2018-07-14T14:26:21.410Z,31.08
2018-07-14T14:28:50.236Z,30.75
2018-07-14T14:31:18.958Z,30.89
2018-07-14T14:33:47.738Z,31.00
2018-07-14T14:36:16.531Z,30.82
2018-07-14T14:38:45.538Z,30.95
2018-07-14T14:41:14.261Z,31.05
2018-07-14T14:43:43.052Z,30.94
2018-07-14T14:46:11.794Z,30.52
2018-07-14T14:48:40.562Z,30.56
2018-07-14T14:51:09.366Z,30.19
2018-07-14T14:53:38.097Z,30.42
2018-07-14T14:56:07.084Z,30.42
2018-07-14T14:58:35.850Z,30.28
2018-07-14T15:01:05.473Z,30.21
2018-07-14T15:03:34.481Z,30.00
2018-07-14T15:06:03.343Z,29.91
2018-07-14T15:08:32.160Z,30.02
2018-07-14T15:11:00.891Z,30.12
2018-07-14T15:13:29.882Z,30.08
2018-07-14T15:15:58.627Z,30.06
2018-07-14T15:18:27.724Z,30.14
2018-07-14T15:20:56.502Z,30.12
2018-07-14T15:23:25.998Z,29.91
2018-07-14T15:25:54.817Z,29.69
2018-07-14T15:28:23.573Z,29.58
2018-07-14T15:30:52.950Z,29.49
2018-07-14T15:33:21.900Z,29.46
2018-07-14T15:35:50.651Z,29.42
2018-07-14T15:38:19.434Z,29.43
2018-07-14T15:40:48.171Z,29.30
2018-07-14T15:43:16.975Z,29.20
2018-07-14T15:45:45.730Z,29.25
2018-07-14T15:48:14.523Z,29.25
2018-07-14T15:50:43.282Z,29.12
2018-07-14T15:53:12.142Z,29.03
2018-07-14T15:55:40.912Z,29.04
2018-07-14T15:58:09.671Z,29.01
2018-07-14T16:00:38.425Z,28.94
2018-07-14T16:03:07.447Z,28.90
2018-07-14T16:05:39.701Z,28.90
2018-07-14T16:08:08.718Z,28.88
2018-07-14T16:10:37.494Z,28.76
2018-07-14T16:13:06.338Z,28.74
2018-07-14T16:15:35.287Z,28.68
2018-07-14T16:18:04.052Z,28.64
2018-07-14T16:20:32.806Z,28.60
2018-07-14T16:23:01.934Z,28.54
2018-07-14T16:25:30.743Z,28.50
2018-07-14T16:27:59.586Z,28.44
2018-07-14T16:30:28.337Z,28.43
2018-07-14T16:32:57.132Z,28.41
2018-07-14T16:35:25.874Z,28.36
2018-07-14T16:37:54.603Z,28.21
2018-07-14T16:40:23.326Z,28.22
2018-07-14T16:42:52.104Z,28.19
2018-07-14T16:45:20.818Z,28.14
2018-07-14T16:47:49.552Z,28.08
2018-07-14T16:50:18.571Z,28.04
2018-07-14T16:52:47.287Z,27.93
2018-07-14T16:55:16.074Z,27.89
2018-07-14T16:57:44.832Z,27.80
2018-07-14T17:00:13.598Z,27.76
2018-07-14T17:02:42.323Z,27.66
2018-07-14T17:05:11.049Z,27.59
2018-07-14T17:07:39.835Z,27.55
2018-07-14T17:10:08.569Z,27.43
2018-07-14T17:12:37.269Z,27.36
2018-07-14T17:15:05.994Z,27.28
2018-07-14T17:17:34.736Z,27.14
2018-07-14T17:20:03.496Z,26.99
2018-07-14T17:22:32.271Z,26.86
2018-07-14T17:25:00.979Z,26.76
2018-07-14T17:27:29.674Z,26.72
2018-07-14T17:29:58.425Z,26.61
2018-07-14T17:32:27.156Z,26.44
2018-07-14T17:34:55.863Z,26.28
2018-07-14T17:37:24.603Z,26.19
2018-07-14T17:39:53.346Z,26.07
2018-07-14T17:42:22.274Z,25.92
2018-07-14T17:44:51.099Z,25.81
2018-07-14T17:47:20.302Z,25.70
2018-07-14T17:49:49.118Z,25.57
2018-07-14T17:52:17.921Z,25.39
2018-07-14T17:54:46.657Z,25.21
2018-07-14T17:57:15.377Z,25.12
2018-07-14T17:59:44.133Z,24.99
2018-07-14T18:02:12.923Z,24.83
2018-07-14T18:04:41.802Z,24.75
2018-07-14T18:07:10.583Z,24.62
2018-07-14T18:09:39.454Z,24.53
2018-07-14T18:12:08.146Z,24.39
2018-07-14T18:14:37.019Z,24.27
2018-07-14T18:17:06.226Z,24.23
2018-07-14T18:19:35.029Z,24.07
2018-07-14T18:22:03.755Z,23.90
2018-07-14T18:24:32.463Z,23.77
2018-07-14T18:27:01.530Z,23.73
2018-07-14T18:29:30.288Z,23.68
2018-07-14T18:31:59.015Z,23.65
2018-07-14T18:34:27.770Z,23.59
2018-07-14T18:36:56.485Z,23.54
2018-07-14T18:39:25.310Z,23.50
2018-07-14T18:41:54.292Z,23.41
2018-07-14T18:44:23.195Z,23.38
2018-07-14T18:46:51.926Z,23.35
2018-07-14T18:49:20.709Z,23.25
2018-07-14T18:51:49.682Z,23.26
2018-07-14T18:54:18.388Z,23.21
2018-07-14T18:56:47.133Z,23.16
2018-07-14T18:59:15.882Z,23.16
2018-07-14T19:01:44.625Z,23.10
2018-07-14T19:04:13.498Z,23.15
2018-07-14T19:06:42.354Z,23.15
2018-07-14T19:09:11.235Z,23.20
2018-07-14T19:11:39.982Z,23.23
2018-07-14T19:14:08.720Z,23.28
2018-07-14T19:16:37.518Z,23.28
2018-07-14T19:19:06.358Z,23.27
2018-07-14T19:21:35.123Z,23.21
2018-07-14T19:24:03.902Z,23.15
2018-07-14T19:26:32.737Z,23.06
2018-07-14T19:29:01.490Z,23.00
2018-07-14T19:31:30.429Z,22.96
2018-07-14T19:33:59.266Z,22.94
2018-07-14T19:36:28.043Z,22.92
2018-07-14T19:38:56.969Z,22.90
2018-07-14T19:41:25.798Z,22.93
2018-07-14T19:43:54.754Z,23.01
2018-07-14T19:46:23.521Z,23.05
2018-07-14T19:48:52.319Z,23.03
2018-07-14T19:51:21.105Z,23.06
2018-07-14T19:53:49.960Z,23.04
2018-07-14T19:56:18.882Z,22.98
2018-07-14T19:58:47.649Z,23.00
2018-07-14T20:01:16.461Z,23.04
2018-07-14T20:03:45.193Z,22.98
2018-07-14T20:06:14.026Z,22.91
2018-07-14T20:08:42.759Z,22.86
2018-07-14T20:11:11.564Z,22.80
2018-07-14T20:13:40.378Z,22.77
2018-07-14T20:16:10.402Z,22.75
2018-07-14T20:18:40.202Z,22.67
2018-07-14T20:21:09.546Z,22.63
2018-07-14T20:23:38.736Z,22.61
2018-07-14T20:26:07.938Z,22.57
2018-07-14T20:28:37.150Z,22.53
2018-07-14T20:31:06.335Z,22.49
2018-07-14T20:33:35.541Z,22.39
2018-07-14T20:36:04.813Z,22.34
2018-07-14T20:38:34.141Z,22.25
2018-07-14T20:41:03.445Z,22.23
2018-07-14T20:43:32.725Z,22.27
2018-07-14T20:46:01.859Z,22.23
2018-07-14T20:48:30.861Z,22.16
2018-07-14T20:50:59.794Z,22.16
2018-07-14T20:53:29.127Z,22.11
2018-07-14T20:55:58.210Z,22.14
2018-07-14T20:58:27.511Z,22.10
2018-07-14T21:00:56.598Z,22.10
2018-07-14T21:03:25.830Z,22.09
2018-07-14T21:05:55.242Z,22.04
2018-07-14T21:08:24.515Z,22.01
2018-07-14T21:10:53.754Z,22.00
2018-07-14T21:13:22.736Z,22.01
2018-07-14T21:15:51.898Z,22.06
2018-07-14T21:18:21.109Z,22.10
2018-07-14T21:20:50.306Z,22.08
2018-07-14T21:23:19.501Z,22.04
2018-07-14T21:25:48.795Z,22.01
2018-07-14T21:28:18.074Z,21.92
2018-07-14T21:30:47.202Z,21.83
2018-07-14T21:33:16.403Z,21.67
2018-07-14T21:35:45.611Z,21.62
2018-07-14T21:38:14.861Z,21.51
2018-07-14T21:40:43.778Z,21.44
2018-07-14T21:43:13.086Z,21.29
2018-07-14T21:45:42.101Z,21.18
2018-07-14T21:48:11.323Z,21.12
2018-07-14T21:50:40.504Z,21.02
2018-07-14T21:53:09.670Z,20.99
2018-07-14T21:55:38.915Z,20.86
2018-07-14T21:58:08.056Z,20.81
2018-07-14T22:00:42.314Z,20.82
2018-07-14T22:03:11.566Z,20.81
2018-07-14T22:05:40.698Z,20.74
2018-07-14T22:08:09.990Z,20.63
2018-07-14T22:10:39.192Z,20.64
2018-07-14T22:13:08.390Z,20.65
2018-07-14T22:15:37.575Z,20.59
2018-07-14T22:18:06.804Z,20.48
2018-07-14T22:20:36.069Z,20.40
2018-07-14T22:23:05.116Z,20.34
2018-07-14T22:25:34.198Z,20.35
2018-07-14T22:28:03.069Z,20.29
2018-07-14T22:30:32.106Z,20.21
2018-07-14T22:33:01.346Z,20.20
2018-07-14T22:35:30.537Z,20.22
2018-07-14T22:37:59.745Z,20.21
2018-07-14T22:40:28.943Z,20.23
2018-07-14T22:42:58.164Z,20.22
2018-07-14T22:45:27.615Z,20.16
2018-07-14T22:47:56.646Z,20.11
2018-07-14T22:50:25.932Z,19.99
2018-07-14T22:52:55.146Z,19.94
2018-07-14T22:55:24.523Z,19.88
2018-07-14T22:57:53.733Z,19.83
2018-07-14T23:00:22.933Z,19.76
2018-07-14T23:02:52.145Z,19.79
2018-07-14T23:05:21.490Z,19.75
2018-07-14T23:07:50.678Z,19.64
2018-07-14T23:10:19.826Z,19.67
2018-07-14T23:12:49.046Z,19.62
2018-07-14T23:15:18.083Z,19.66
2018-07-14T23:17:47.244Z,19.57
2018-07-14T23:20:16.429Z,19.52
2018-07-14T23:22:45.729Z,19.50
2018-07-14T23:25:15.021Z,19.57
2018-07-14T23:27:44.117Z,19.54
2018-07-14T23:30:13.308Z,19.52
2018-07-14T23:32:42.552Z,19.51
2018-07-14T23:35:11.710Z,19.49
2018-07-14T23:37:40.909Z,19.51
2018-07-14T23:40:10.193Z,19.50
2018-07-14T23:42:39.098Z,19.46
2018-07-14T23:45:08.377Z,19.39
2018-07-14T23:47:37.294Z,19.34
2018-07-14T23:50:06.491Z,19.32
2018-07-14T23:52:35.696Z,19.29
2018-07-14T23:55:05.019Z,19.33
2018-07-14T23:57:34.217Z,19.32
